sensor_id;sensor_type;location;lat;lon;timestamp;pressure;altitude;pressure_sealevel;temperature;humidity
39897;BME280;25567;48.276;14.242;2022-11-15T00:00:54;98491.69;;;4.20;100.00
39897;BME280;25567;48.276;14.242;2022-11-15T00:03:23;98485.56;;;4.13;100.00
39897;BME280;25567;48.276;14.242;2022-11-15T00:05:50;98482.16;;;4.19;100.00
39897;BME280;25567;48.276;14.242;2022-11-15T00:08:17;98474.56;;;4.24;100.00
39897;BME280;25567;48.276;14.242;2022-11-15T00:11:00;98469.31;;;4.24;100.00
39897;BME280;25567;48.276;14.242;2022-11-15T00:13:28;98471.25;;;4.15;100.00
39897;BME280;25567;48.276;14.242;2022-11-15T00:15:57;98461.34;;;4.17;100.00
39897;BME280;25567;48.276;14.242;2022-11-15T00:18:25;98464.50;;;4.06;100.00
39897;BME280;25567;48.276;14.242;2022-11-15T00:20:52;98470.53;;;3.85;100.00
39897;BME280;25567;48.276;14.242;2022-11-15T00:23:19;98463.19;;;3.80;100.00
39897;BME280;25567;48.276;14.242;2022-11-15T00:25:45;98464.09;;;3.88;100.00
39897;BME280;25567;48.276;14.242;2022-11-15T00:28:12;98462.16;;;3.96;100.00
39897;BME280;25567;48.276;14.242;2022-11-15T00:30:38;98476.72;;;3.99;100.00
39897;BME280;25567;48.276;14.242;2022-11-15T00:33:06;98475.53;;;4.01;100.00
39897;BME280;25567;48.276;14.242;2022-11-15T00:35:33;98478.28;;;4.15;100.00
39897;BME280;25567;48.276;14.242;2022-11-15T00:38:01;98475.31;;;4.18;100.00
39897;BME280;25567;48.276;14.242;2022-11-15T00:40:28;98477.13;;;4.17;100.00
39897;BME280;25567;48.276;14.242;2022-11-15T00:42:55;98465.44;;;4.20;100.00
39897;BME280;25567;48.276;14.242;2022-11-15T00:45:22;98469.28;;;4.03;100.00
39897;BME280;25567;48.276;14.242;2022-11-15T00:47:50;98465.88;;;4.02;100.00
39897;BME280;25567;48.276;14.242;2022-11-15T00:50:17;98466.47;;;4.04;100.00
39897;BME280;25567;48.276;14.242;2022-11-15T00:52:44;98472.38;;;4.06;100.00
39897;BME280;25567;48.276;14.242;2022-11-15T00:55:15;98473.81;;;3.94;100.00
39897;BME280;25567;48.276;14.242;2022-11-15T00:57:43;98473.34;;;3.68;100.00
39897;BME280;25567;48.276;14.242;2022-11-15T01:00:10;98480.78;;;3.50;100.00
39897;BME280;25567;48.276;14.242;2022-11-15T01:02:40;98482.41;;;3.51;100.00
39897;BME280;25567;48.276;14.242;2022-11-15T01:05:07;98484.94;;;3.59;100.00
39897;BME280;25567;48.276;14.242;2022-11-15T01:07:34;98479.75;;;3.66;100.00
39897;BME280;25567;48.276;14.242;2022-11-15T01:10:01;98474.97;;;3.70;100.00
39897;BME280;25567;48.276;14.242;2022-11-15T01:12:27;98474.63;;;3.73;100.00
39897;BME280;25567;48.276;14.242;2022-11-15T01:14:54;98474.78;;;3.71;100.00
39897;BME280;25567;48.276;14.242;2022-11-15T01:17:21;98468.38;;;3.59;100.00
39897;BME280;25567;48.276;14.242;2022-11-15T01:19:47;98474.00;;;3.41;100.00
39897;BME280;25567;48.276;14.242;2022-11-15T01:22:14;98469.59;;;3.26;100.00
39897;BME280;25567;48.276;14.242;2022-11-15T01:24:41;98469.78;;;3.40;100.00
39897;BME280;25567;48.276;14.242;2022-11-15T01:27:08;98465.69;;;3.37;100.00
39897;BME280;25567;48.276;14.242;2022-11-15T01:29:38;98466.22;;;3.47;100.00
39897;BME280;25567;48.276;14.242;2022-11-15T01:32:05;98465.22;;;3.48;100.00
39897;BME280;25567;48.276;14.242;2022-11-15T01:34:32;98458.84;;;3.21;100.00
39897;BME280;25567;48.276;14.242;2022-11-15T01:36:58;98454.69;;;3.12;100.00
39897;BME280;25567;48.276;14.242;2022-11-15T01:39:25;98456.28;;;3.13;100.00
39897;BME280;25567;48.276;14.242;2022-11-15T01:41:53;98453.66;;;3.13;100.00
39897;BME280;25567;48.276;14.242;2022-11-15T01:47:04;98441.19;;;3.30;100.00
39897;BME280;25567;48.276;14.242;2022-11-15T01:49:34;98439.22;;;3.32;100.00
39897;BME280;25567;48.276;14.242;2022-11-15T01:52:07;98440.13;;;3.24;100.00
39897;BME280;25567;48.276;14.242;2022-11-15T01:54:35;98434.88;;;3.24;100.00
39897;BME280;25567;48.276;14.242;2022-11-15T01:57:06;98438.31;;;3.10;100.00
39897;BME280;25567;48.276;14.242;2022-11-15T01:59:35;98427.81;;;2.95;100.00
39897;BME280;25567;48.276;14.242;2022-11-15T02:02:03;98418.41;;;3.00;100.00
39897;BME280;25567;48.276;14.242;2022-11-15T02:04:36;98420.16;;;3.08;100.00
39897;BME280;25567;48.276;14.242;2022-11-15T02:07:05;98413.00;;;3.17;100.00
39897;BME280;25567;48.276;14.242;2022-11-15T02:09:33;98416.44;;;3.17;100.00
39897;BME280;25567;48.276;14.242;2022-11-15T02:11:59;98418.06;;;3.19;100.00
39897;BME280;25567;48.276;14.242;2022-11-15T02:14:27;98407.41;;;3.20;100.00
39897;BME280;25567;48.276;14.242;2022-11-15T02:22:58;98408.56;;;2.88;100.00
39897;BME280;25567;48.276;14.242;2022-11-15T02:25:49;98414.16;;;2.99;100.00
39897;BME280;25567;48.276;14.242;2022-11-15T02:28:40;98412.19;;;2.87;100.00
39897;BME280;25567;48.276;14.242;2022-11-15T02:34:00;98401.16;;;2.76;100.00
39897;BME280;25567;48.276;14.242;2022-11-15T02:36:49;98409.22;;;2.90;100.00
39897;BME280;25567;48.276;14.242;2022-11-15T02:39:35;98402.88;;;2.84;100.00
39897;BME280;25567;48.276;14.242;2022-11-15T02:42:09;98405.75;;;2.74;100.00
39897;BME280;25567;48.276;14.242;2022-11-15T02:45:01;98401.84;;;2.55;100.00
39897;BME280;25567;48.276;14.242;2022-11-15T02:47:34;98410.97;;;2.59;100.00
39897;BME280;25567;48.276;14.242;2022-11-15T02:50:08;98410.72;;;2.69;100.00
39897;BME280;25567;48.276;14.242;2022-11-15T02:52:36;98404.94;;;2.74;100.00
39897;BME280;25567;48.276;14.242;2022-11-15T02:55:03;98407.94;;;2.86;100.00
39897;BME280;25567;48.276;14.242;2022-11-15T03:00:15;98402.03;;;2.54;100.00
39897;BME280;25567;48.276;14.242;2022-11-15T03:03:09;98397.38;;;2.64;100.00
39897;BME280;25567;48.276;14.242;2022-11-15T03:05:57;98397.47;;;2.71;100.00
39897;BME280;25567;48.276;14.242;2022-11-15T03:08:32;98388.59;;;2.72;100.00
39897;BME280;25567;48.276;14.242;2022-11-15T03:16:26;98392.66;;;2.74;100.00
39897;BME280;25567;48.276;14.242;2022-11-15T03:18:59;98388.88;;;2.77;100.00
39897;BME280;25567;48.276;14.242;2022-11-15T03:21:31;98389.50;;;2.79;100.00
39897;BME280;25567;48.276;14.242;2022-11-15T03:24:03;98382.44;;;2.79;100.00
39897;BME280;25567;48.276;14.242;2022-11-15T03:26:31;98383.09;;;2.81;100.00
39897;BME280;25567;48.276;14.242;2022-11-15T03:29:04;98363.94;;;2.81;100.00
39897;BME280;25567;48.276;14.242;2022-11-15T03:31:36;98368.00;;;2.83;100.00
39897;BME280;25567;48.276;14.242;2022-11-15T03:34:31;98371.09;;;2.87;100.00
39897;BME280;25567;48.276;14.242;2022-11-15T03:36:58;98366.31;;;2.91;100.00
39897;BME280;25567;48.276;14.242;2022-11-15T03:39:25;98361.50;;;2.94;100.00
39897;BME280;25567;48.276;14.242;2022-11-15T03:41:56;98348.31;;;2.88;100.00
39897;BME280;25567;48.276;14.242;2022-11-15T03:47:21;98354.34;;;2.73;100.00
39897;BME280;25567;48.276;14.242;2022-11-15T03:49:52;98357.72;;;2.67;100.00
39897;BME280;25567;48.276;14.242;2022-11-15T03:52:21;98350.03;;;2.65;100.00
39897;BME280;25567;48.276;14.242;2022-11-15T03:54:51;98351.31;;;2.70;100.00
39897;BME280;25567;48.276;14.242;2022-11-15T03:57:19;98341.00;;;2.83;100.00
39897;BME280;25567;48.276;14.242;2022-11-15T03:59:45;98333.16;;;2.83;100.00
39897;BME280;25567;48.276;14.242;2022-11-15T04:02:12;98340.28;;;2.89;100.00
39897;BME280;25567;48.276;14.242;2022-11-15T04:04:39;98334.94;;;2.97;100.00
39897;BME280;25567;48.276;14.242;2022-11-15T04:07:06;98332.59;;;3.03;100.00
39897;BME280;25567;48.276;14.242;2022-11-15T04:09:33;98335.03;;;3.04;100.00
39897;BME280;25567;48.276;14.242;2022-11-15T04:12:00;98345.50;;;3.04;100.00
39897;BME280;25567;48.276;14.242;2022-11-15T04:14:26;98351.38;;;3.06;100.00
39897;BME280;25567;48.276;14.242;2022-11-15T04:16:53;98347.56;;;3.09;100.00
39897;BME280;25567;48.276;14.242;2022-11-15T04:19:20;98341.97;;;3.12;100.00
39897;BME280;25567;48.276;14.242;2022-11-15T04:22:01;98353.34;;;3.19;100.00
39897;BME280;25567;48.276;14.242;2022-11-15T04:24:43;98340.44;;;3.17;100.00
39897;BME280;25567;48.276;14.242;2022-11-15T04:27:10;98332.00;;;3.22;100.00
39897;BME280;25567;48.276;14.242;2022-11-15T04:29:39;98330.47;;;3.28;100.00
39897;BME280;25567;48.276;14.242;2022-11-15T04:32:06;98335.34;;;3.31;100.00
39897;BME280;25567;48.276;14.242;2022-11-15T04:34:33;98327.66;;;3.29;100.00
39897;BME280;25567;48.276;14.242;2022-11-15T04:37:00;98323.66;;;3.33;100.00
39897;BME280;25567;48.276;14.242;2022-11-15T04:39:43;98323.28;;;3.37;100.00
39897;BME280;25567;48.276;14.242;2022-11-15T04:42:10;98327.72;;;3.36;100.00
39897;BME280;25567;48.276;14.242;2022-11-15T04:44:37;98326.94;;;3.36;100.00
39897;BME280;25567;48.276;14.242;2022-11-15T04:47:03;98325.50;;;3.33;100.00
39897;BME280;25567;48.276;14.242;2022-11-15T04:49:30;98323.84;;;3.32;100.00
39897;BME280;25567;48.276;14.242;2022-11-15T04:51:57;98317.63;;;3.33;100.00
39897;BME280;25567;48.276;14.242;2022-11-15T04:54:24;98320.06;;;3.34;100.00
39897;BME280;25567;48.276;14.242;2022-11-15T04:56:51;98321.69;;;3.36;100.00
39897;BME280;25567;48.276;14.242;2022-11-15T04:59:17;98328.59;;;3.43;100.00
39897;BME280;25567;48.276;14.242;2022-11-15T05:01:44;98329.28;;;3.30;100.00
39897;BME280;25567;48.276;14.242;2022-11-15T05:04:14;98321.59;;;3.29;100.00
39897;BME280;25567;48.276;14.242;2022-11-15T05:06:49;98319.59;;;3.31;100.00
39897;BME280;25567;48.276;14.242;2022-11-15T05:09:18;98314.44;;;3.38;100.00
39897;BME280;25567;48.276;14.242;2022-11-15T05:11:45;98316.00;;;3.32;100.00
39897;BME280;25567;48.276;14.242;2022-11-15T05:14:12;98305.50;;;3.32;100.00
39897;BME280;25567;48.276;14.242;2022-11-15T05:16:39;98299.28;;;3.18;100.00
39897;BME280;25567;48.276;14.242;2022-11-15T05:19:06;98303.63;;;3.26;100.00
39897;BME280;25567;48.276;14.242;2022-11-15T05:21:33;98298.19;;;3.27;100.00
39897;BME280;25567;48.276;14.242;2022-11-15T05:24:00;98296.38;;;3.28;100.00
39897;BME280;25567;48.276;14.242;2022-11-15T05:26:27;98300.66;;;3.14;100.00
39897;BME280;25567;48.276;14.242;2022-11-15T05:28:56;98301.50;;;2.99;100.00
39897;BME280;25567;48.276;14.242;2022-11-15T05:31:27;98299.06;;;2.98;100.00
39897;BME280;25567;48.276;14.242;2022-11-15T05:33:58;98293.03;;;2.97;100.00
39897;BME280;25567;48.276;14.242;2022-11-15T05:36:29;98283.34;;;2.98;100.00
39897;BME280;25567;48.276;14.242;2022-11-15T05:38:57;98290.81;;;3.01;100.00
39897;BME280;25567;48.276;14.242;2022-11-15T05:41:29;98292.53;;;3.09;100.00
39897;BME280;25567;48.276;14.242;2022-11-15T05:43:58;98291.34;;;3.11;100.00
39897;BME280;25567;48.276;14.242;2022-11-15T05:46:25;98295.59;;;3.12;100.00
39897;BME280;25567;48.276;14.242;2022-11-15T05:48:52;98293.44;;;3.16;100.00
39897;BME280;25567;48.276;14.242;2022-11-15T05:51:20;98287.00;;;3.19;100.00
39897;BME280;25567;48.276;14.242;2022-11-15T05:53:49;98280.16;;;3.17;100.00
39897;BME280;25567;48.276;14.242;2022-11-15T05:56:17;98276.06;;;3.15;100.00
39897;BME280;25567;48.276;14.242;2022-11-15T05:58:44;98271.38;;;3.10;100.00
39897;BME280;25567;48.276;14.242;2022-11-15T06:01:11;98268.53;;;3.05;100.00
39897;BME280;25567;48.276;14.242;2022-11-15T06:03:37;98262.41;;;2.83;100.00
39897;BME280;25567;48.276;14.242;2022-11-15T06:06:04;98270.53;;;2.88;100.00
39897;BME280;25567;48.276;14.242;2022-11-15T06:08:31;98267.53;;;2.91;100.00
39897;BME280;25567;48.276;14.242;2022-11-15T06:11:04;98276.22;;;2.77;100.00
39897;BME280;25567;48.276;14.242;2022-11-15T06:13:32;98273.44;;;2.78;100.00
39897;BME280;25567;48.276;14.242;2022-11-15T06:16:00;98275.25;;;2.78;100.00
39897;BME280;25567;48.276;14.242;2022-11-15T06:18:28;98271.75;;;2.71;100.00
39897;BME280;25567;48.276;14.242;2022-11-15T06:20:58;98269.81;;;2.79;100.00
39897;BME280;25567;48.276;14.242;2022-11-15T06:23:25;98272.31;;;2.88;100.00
39897;BME280;25567;48.276;14.242;2022-11-15T06:25:52;98269.56;;;2.89;100.00
39897;BME280;25567;48.276;14.242;2022-11-15T06:28:18;98266.94;;;2.89;100.00
39897;BME280;25567;48.276;14.242;2022-11-15T06:30:45;98277.03;;;2.92;100.00
39897;BME280;25567;48.276;14.242;2022-11-15T06:33:18;98273.81;;;2.60;100.00
39897;BME280;25567;48.276;14.242;2022-11-15T06:35:45;98271.13;;;2.54;100.00
39897;BME280;25567;48.276;14.242;2022-11-15T06:38:12;98269.19;;;2.62;100.00
39897;BME280;25567;48.276;14.242;2022-11-15T06:40:39;98278.31;;;2.66;100.00
39897;BME280;25567;48.276;14.242;2022-11-15T06:43:06;98271.91;;;2.54;100.00
39897;BME280;25567;48.276;14.242;2022-11-15T06:45:32;98278.69;;;2.48;100.00
39897;BME280;25567;48.276;14.242;2022-11-15T06:47:59;98286.25;;;2.58;100.00
39897;BME280;25567;48.276;14.242;2022-11-15T06:50:26;98292.41;;;2.65;100.00
39897;BME280;25567;48.276;14.242;2022-11-15T06:52:52;98293.31;;;2.73;100.00
39897;BME280;25567;48.276;14.242;2022-11-15T06:55:19;98306.94;;;2.83;100.00
39897;BME280;25567;48.276;14.242;2022-11-15T06:57:47;98302.50;;;2.83;100.00
39897;BME280;25567;48.276;14.242;2022-11-15T07:00:15;98302.78;;;2.89;100.00
39897;BME280;25567;48.276;14.242;2022-11-15T07:02:42;98300.25;;;2.95;100.00
39897;BME280;25567;48.276;14.242;2022-11-15T07:05:09;98302.41;;;3.07;100.00
39897;BME280;25567;48.276;14.242;2022-11-15T07:07:35;98290.38;;;3.12;100.00
39897;BME280;25567;48.276;14.242;2022-11-15T07:10:02;98300.53;;;3.22;100.00
39897;BME280;25567;48.276;14.242;2022-11-15T07:12:29;98301.91;;;3.33;100.00
39897;BME280;25567;48.276;14.242;2022-11-15T07:14:56;98298.63;;;3.31;100.00
39897;BME280;25567;48.276;14.242;2022-11-15T07:17:22;98295.63;;;3.34;100.00
39897;BME280;25567;48.276;14.242;2022-11-15T07:19:49;98297.59;;;3.47;100.00
39897;BME280;25567;48.276;14.242;2022-11-15T07:22:15;98308.13;;;3.54;100.00
39897;BME280;25567;48.276;14.242;2022-11-15T07:24:42;98304.72;;;3.53;100.00
39897;BME280;25567;48.276;14.242;2022-11-15T07:27:09;98301.53;;;3.58;100.00
39897;BME280;25567;48.276;14.242;2022-11-15T07:29:35;98295.09;;;3.60;100.00
39897;BME280;25567;48.276;14.242;2022-11-15T07:32:02;98296.16;;;3.66;100.00
39897;BME280;25567;48.276;14.242;2022-11-15T07:34:29;98293.34;;;3.67;100.00
39897;BME280;25567;48.276;14.242;2022-11-15T07:36:55;98285.28;;;3.69;100.00
39897;BME280;25567;48.276;14.242;2022-11-15T07:39:22;98297.53;;;3.83;100.00
39897;BME280;25567;48.276;14.242;2022-11-15T07:41:49;98295.09;;;3.82;100.00
39897;BME280;25567;48.276;14.242;2022-11-15T07:44:36;98300.50;;;3.80;100.00
39897;BME280;25567;48.276;14.242;2022-11-15T07:47:02;98287.41;;;3.80;100.00
39897;BME280;25567;48.276;14.242;2022-11-15T07:49:29;98280.41;;;3.88;100.00
39897;BME280;25567;48.276;14.242;2022-11-15T07:51:55;98285.91;;;3.93;100.00
39897;BME280;25567;48.276;14.242;2022-11-15T07:54:22;98280.66;;;3.93;100.00
39897;BME280;25567;48.276;14.242;2022-11-15T07:56:49;98284.28;;;3.92;100.00
39897;BME280;25567;48.276;14.242;2022-11-15T07:59:15;98278.69;;;4.01;100.00
39897;BME280;25567;48.276;14.242;2022-11-15T08:01:42;98276.25;;;4.00;100.00
39897;BME280;25567;48.276;14.242;2022-11-15T08:04:10;98274.03;;;3.97;100.00
39897;BME280;25567;48.276;14.242;2022-11-15T08:06:37;98265.97;;;3.98;100.00
39897;BME280;25567;48.276;14.242;2022-11-15T08:09:04;98262.19;;;4.08;100.00
39897;BME280;25567;48.276;14.242;2022-11-15T08:11:31;98263.81;;;4.09;100.00
39897;BME280;25567;48.276;14.242;2022-11-15T08:13:58;98267.53;;;4.21;100.00
39897;BME280;25567;48.276;14.242;2022-11-15T08:16:24;98262.22;;;4.14;100.00
39897;BME280;25567;48.276;14.242;2022-11-15T08:18:51;98269.59;;;4.26;100.00
39897;BME280;25567;48.276;14.242;2022-11-15T08:21:19;98272.25;;;4.32;100.00
39897;BME280;25567;48.276;14.242;2022-11-15T08:23:46;98263.59;;;4.39;100.00
39897;BME280;25567;48.276;14.242;2022-11-15T08:26:13;98261.13;;;4.30;100.00
39897;BME280;25567;48.276;14.242;2022-11-15T08:28:41;98258.91;;;4.27;100.00
39897;BME280;25567;48.276;14.242;2022-11-15T08:31:14;98259.88;;;4.26;100.00
39897;BME280;25567;48.276;14.242;2022-11-15T08:33:41;98258.06;;;4.27;100.00
39897;BME280;25567;48.276;14.242;2022-11-15T08:36:12;98255.09;;;4.37;100.00
39897;BME280;25567;48.276;14.242;2022-11-15T08:38:40;98253.72;;;4.41;100.00
39897;BME280;25567;48.276;14.242;2022-11-15T08:41:12;98250.06;;;4.35;100.00
39897;BME280;25567;48.276;14.242;2022-11-15T08:43:40;98241.97;;;4.37;100.00
39897;BME280;25567;48.276;14.242;2022-11-15T08:46:10;98244.84;;;4.42;100.00
39897;BME280;25567;48.276;14.242;2022-11-15T08:48:38;98243.44;;;4.46;100.00
39897;BME280;25567;48.276;14.242;2022-11-15T08:51:05;98241.81;;;4.45;100.00
39897;BME280;25567;48.276;14.242;2022-11-15T08:53:31;98235.94;;;4.43;100.00
39897;BME280;25567;48.276;14.242;2022-11-15T08:55:58;98244.75;;;4.63;100.00
39897;BME280;25567;48.276;14.242;2022-11-15T08:58:25;98243.97;;;4.70;100.00
39897;BME280;25567;48.276;14.242;2022-11-15T09:00:52;98246.19;;;4.73;100.00
39897;BME280;25567;48.276;14.242;2022-11-15T09:03:18;98248.84;;;4.79;100.00
39897;BME280;25567;48.276;14.242;2022-11-15T09:05:48;98248.84;;;4.79;100.00
39897;BME280;25567;48.276;14.242;2022-11-15T09:08:16;98247.59;;;4.68;100.00
39897;BME280;25567;48.276;14.242;2022-11-15T09:11:04;98247.66;;;4.89;100.00
39897;BME280;25567;48.276;14.242;2022-11-15T09:13:31;98254.34;;;4.84;100.00
39897;BME280;25567;48.276;14.242;2022-11-15T09:15:58;98252.09;;;4.81;100.00
39897;BME280;25567;48.276;14.242;2022-11-15T09:18:27;98255.69;;;4.67;100.00
39897;BME280;25567;48.276;14.242;2022-11-15T09:20:56;98259.56;;;4.78;100.00
39897;BME280;25567;48.276;14.242;2022-11-15T09:23:23;98259.59;;;4.84;100.00
39897;BME280;25567;48.276;14.242;2022-11-15T09:25:51;98255.75;;;4.87;100.00
39897;BME280;25567;48.276;14.242;2022-11-15T09:28:18;98252.44;;;4.72;100.00
39897;BME280;25567;48.276;14.242;2022-11-15T09:30:44;98246.59;;;4.70;100.00
39897;BME280;25567;48.276;14.242;2022-11-15T09:33:12;98249.22;;;4.70;100.00
39897;BME280;25567;48.276;14.242;2022-11-15T09:35:42;98249.81;;;4.72;100.00
39897;BME280;25567;48.276;14.242;2022-11-15T09:38:08;98261.00;;;4.80;100.00
39897;BME280;25567;48.276;14.242;2022-11-15T09:40:37;98255.34;;;4.90;100.00
39897;BME280;25567;48.276;14.242;2022-11-15T09:45:57;98246.25;;;4.86;100.00
39897;BME280;25567;48.276;14.242;2022-11-15T09:51:31;98240.41;;;4.91;100.00
39897;BME280;25567;48.276;14.242;2022-11-15T09:54:11;98245.47;;;4.92;100.00
39897;BME280;25567;48.276;14.242;2022-11-15T09:57:15;98242.66;;;5.00;100.00
39897;BME280;25567;48.276;14.242;2022-11-15T10:03:08;98231.28;;;4.93;100.00
39897;BME280;25567;48.276;14.242;2022-11-15T10:10:47;98216.94;;;4.89;100.00
39897;BME280;25567;48.276;14.242;2022-11-15T10:13:24;98210.06;;;4.81;100.00
39897;BME280;25567;48.276;14.242;2022-11-15T10:15:56;98203.41;;;4.92;100.00
39897;BME280;25567;48.276;14.242;2022-11-15T10:18:35;98205.84;;;4.94;100.00
39897;BME280;25567;48.276;14.242;2022-11-15T10:21:17;98198.16;;;4.86;100.00
39897;BME280;25567;48.276;14.242;2022-11-15T10:23:44;98194.69;;;4.85;100.00
39897;BME280;25567;48.276;14.242;2022-11-15T10:26:14;98184.81;;;4.87;100.00
39897;BME280;25567;48.276;14.242;2022-11-15T10:28:42;98188.44;;;4.86;100.00
39897;BME280;25567;48.276;14.242;2022-11-15T10:33:49;98166.41;;;4.87;100.00
39897;BME280;25567;48.276;14.242;2022-11-15T10:36:18;98157.31;;;4.90;100.00
39897;BME280;25567;48.276;14.242;2022-11-15T10:38:54;98152.88;;;4.97;100.00
39897;BME280;25567;48.276;14.242;2022-11-15T10:41:30;98144.78;;;4.98;100.00
39897;BME280;25567;48.276;14.242;2022-11-15T10:44:20;98146.22;;;5.08;100.00
39897;BME280;25567;48.276;14.242;2022-11-15T10:47:05;98136.09;;;5.05;100.00
39897;BME280;25567;48.276;14.242;2022-11-15T10:49:33;98131.66;;;5.05;100.00
39897;BME280;25567;48.276;14.242;2022-11-15T10:52:02;98130.25;;;5.09;100.00
39897;BME280;25567;48.276;14.242;2022-11-15T10:54:40;98118.53;;;5.18;100.00
39897;BME280;25567;48.276;14.242;2022-11-15T10:57:18;98117.13;;;5.16;100.00
39897;BME280;25567;48.276;14.242;2022-11-15T10:59:48;98109.41;;;5.21;100.00
39897;BME280;25567;48.276;14.242;2022-11-15T11:04:59;98110.44;;;5.07;100.00
39897;BME280;25567;48.276;14.242;2022-11-15T11:07:29;98109.59;;;5.06;100.00
39897;BME280;25567;48.276;14.242;2022-11-15T11:10:00;98100.31;;;5.04;100.00
39897;BME280;25567;48.276;14.242;2022-11-15T11:12:30;98096.66;;;5.11;100.00
39897;BME280;25567;48.276;14.242;2022-11-15T11:14:59;98089.78;;;5.17;100.00
39897;BME280;25567;48.276;14.242;2022-11-15T11:17:49;98084.75;;;5.09;100.00
39897;BME280;25567;48.276;14.242;2022-11-15T11:23:31;98078.06;;;5.13;100.00
39897;BME280;25567;48.276;14.242;2022-11-15T11:25:53;98074.63;;;5.26;100.00
39897;BME280;25567;48.276;14.242;2022-11-15T11:36:37;98058.44;;;5.22;100.00
39897;BME280;25567;48.276;14.242;2022-11-15T11:42:10;98055.22;;;5.27;100.00
39897;BME280;25567;48.276;14.242;2022-11-15T11:45:12;98053.16;;;5.35;100.00
39897;BME280;25567;48.276;14.242;2022-11-15T11:47:51;98060.84;;;5.30;100.00
39897;BME280;25567;48.276;14.242;2022-11-15T11:50:20;98057.22;;;5.38;100.00
39897;BME280;25567;48.276;14.242;2022-11-15T11:53:05;98051.56;;;5.21;100.00
39897;BME280;25567;48.276;14.242;2022-11-15T11:55:47;98043.28;;;5.31;100.00
39897;BME280;25567;48.276;14.242;2022-11-15T12:00:52;98019.00;;;5.15;100.00
39897;BME280;25567;48.276;14.242;2022-11-15T12:03:28;98022.44;;;5.29;100.00
39897;BME280;25567;48.276;14.242;2022-11-15T12:05:57;98017.56;;;5.26;100.00
39897;BME280;25567;48.276;14.242;2022-11-15T12:08:45;98015.97;;;5.25;100.00
39897;BME280;25567;48.276;14.242;2022-11-15T12:11:18;98012.13;;;5.28;100.00
39897;BME280;25567;48.276;14.242;2022-11-15T12:13:49;98011.75;;;5.17;100.00
39897;BME280;25567;48.276;14.242;2022-11-15T12:16:26;98002.66;;;5.13;100.00
39897;BME280;25567;48.276;14.242;2022-11-15T12:18:58;98010.72;;;5.12;100.00
39897;BME280;25567;48.276;14.242;2022-11-15T12:24:00;97998.81;;;5.09;100.00
39897;BME280;25567;48.276;14.242;2022-11-15T12:26:33;97994.56;;;5.15;100.00
39897;BME280;25567;48.276;14.242;2022-11-15T12:29:05;97992.94;;;5.14;100.00
39897;BME280;25567;48.276;14.242;2022-11-15T12:31:40;97985.03;;;5.21;100.00
39897;BME280;25567;48.276;14.242;2022-11-15T12:40:22;97963.38;;;5.32;100.00
39897;BME280;25567;48.276;14.242;2022-11-15T12:45:45;97958.94;;;5.26;100.00
39897;BME280;25567;48.276;14.242;2022-11-15T12:48:53;97963.75;;;5.29;100.00
39897;BME280;25567;48.276;14.242;2022-11-15T12:52:03;97956.47;;;5.38;100.00
39897;BME280;25567;48.276;14.242;2022-11-15T12:57:33;97945.94;;;5.44;100.00
39897;BME280;25567;48.276;14.242;2022-11-15T12:59:57;97946.53;;;5.40;100.00
39897;BME280;25567;48.276;14.242;2022-11-15T13:02:27;97937.06;;;5.39;100.00
39897;BME280;25567;48.276;14.242;2022-11-15T13:17:56;97920.03;;;5.48;100.00
39897;BME280;25567;48.276;14.242;2022-11-15T13:20:29;97913.25;;;5.65;100.00
39897;BME280;25567;48.276;14.242;2022-11-15T13:25:52;97918.22;;;5.42;100.00
39897;BME280;25567;48.276;14.242;2022-11-15T13:28:26;97911.75;;;5.44;100.00
39897;BME280;25567;48.276;14.242;2022-11-15T13:30:56;97901.94;;;5.58;100.00
39897;BME280;25567;48.276;14.242;2022-11-15T13:33:31;97902.19;;;5.50;100.00
39897;BME280;25567;48.276;14.242;2022-11-15T13:36:07;97897.72;;;5.57;100.00
39897;BME280;25567;48.276;14.242;2022-11-15T13:38:37;97899.81;;;5.42;100.00
39897;BME280;25567;48.276;14.242;2022-11-15T13:41:20;97908.47;;;5.49;100.00
39897;BME280;25567;48.276;14.242;2022-11-15T13:43:49;97909.50;;;5.48;100.00
39897;BME280;25567;48.276;14.242;2022-11-15T13:48:50;97884.94;;;5.61;100.00
39897;BME280;25567;48.276;14.242;2022-11-15T13:51:26;97895.28;;;5.62;100.00
39897;BME280;25567;48.276;14.242;2022-11-15T13:54:17;97901.34;;;5.63;100.00
39897;BME280;25567;48.276;14.242;2022-11-15T13:56:52;97893.22;;;5.64;100.00
39897;BME280;25567;48.276;14.242;2022-11-15T13:59:26;97895.28;;;5.62;100.00
39897;BME280;25567;48.276;14.242;2022-11-15T14:01:55;97893.69;;;5.55;100.00
39897;BME280;25567;48.276;14.242;2022-11-15T14:04:25;97894.94;;;5.45;100.00
39897;BME280;25567;48.276;14.242;2022-11-15T14:06:55;97900.59;;;5.42;100.00
39897;BME280;25567;48.276;14.242;2022-11-15T14:11:51;97882.00;;;5.44;100.00
39897;BME280;25567;48.276;14.242;2022-11-15T14:14:20;97881.56;;;5.54;100.00
39897;BME280;25567;48.276;14.242;2022-11-15T14:16:51;97872.66;;;5.55;100.00
39897;BME280;25567;48.276;14.242;2022-11-15T14:24:45;97875.16;;;5.36;100.00
39897;BME280;25567;48.276;14.242;2022-11-15T14:27:25;97876.09;;;5.48;100.00
39897;BME280;25567;48.276;14.242;2022-11-15T14:29:52;97876.31;;;5.47;100.00
39897;BME280;25567;48.276;14.242;2022-11-15T14:32:29;97873.63;;;5.60;100.00
39897;BME280;25567;48.276;14.242;2022-11-15T14:34:57;97871.78;;;5.61;100.00
39897;BME280;25567;48.276;14.242;2022-11-15T14:37:27;97865.34;;;5.57;100.00
39897;BME280;25567;48.276;14.242;2022-11-15T14:39:55;97864.09;;;5.59;100.00
39897;BME280;25567;48.276;14.242;2022-11-15T14:42:23;97859.81;;;5.65;100.00
39897;BME280;25567;48.276;14.242;2022-11-15T14:44:50;97858.59;;;5.67;100.00
39897;BME280;25567;48.276;14.242;2022-11-15T14:47:17;97859.06;;;5.58;100.00